Aérodrome :
LOGIN :

S'inscrire | Disclaimer

   EN    FR    IT 

 










Légende :    VFR   VFR Marginal   IFR   IFR Intensif   IFR Très Intensif
Visi : 
Plafond : 
>= 8 km
>= 3000ft
5 à 8 km
1000 à 3000 ft
1500m à 5 km
500 à 1000 ft
800 à 1500m
200 à 500 ft
< 800m
< 200 ft
Symboles :   Orages  Brouillard  Fortes neiges  Fortes précipitations  Vent > 20 kt
SIGMETs :   Divers  Orages  Givrage  Turbulence  Onde Orograph.  Cendres Volcan.






- Altitude de l'aérodrome : 66 ft
- Code IATA : EJH


OEWJ - Wejh

DERNIER METAR :
  • 150400Z 04005KT CAVOK 16/09 Q1015 NOSIG

METARs EXPIRÉS :
  • 150300Z 05006KT CAVOK 15/10 Q1015 NOSIG
  • 150200Z 04007KT CAVOK 15/09 Q1015 NOSIG

TAF TAF OEWJ
Valide du 15 à 00h jusqu'au 16 à 06h UTC


142300Z 1500/1606 07008KT 7000 FEW040
TEMPO 1500/1505 4000 BR
BECMG 1510/1512 34010KT
BECMG 1518/1520 08006KT
PROB30
TEMPO 1518/1604 FEW030CB SCT040



MET'MAP, la Météo Aéronautique d'un coup d'oeil ! - Copyright ORBIFLY Décembre 2007 - Disclaimer

ORBIFLY MET'MAP TEAM :

Programmation & Développement : Alexandra Zaïnal
Sur une idée originale de : Baudouin d'Aumeries
Assistance à la programmation : Marc-Olivier Méhu
Soutien technique & logistique : Manuel Goepfert

Contact : metmap@orbifly.com




SOURCES & CREDITS :

   NOAA